Time;durP1;ratioP1;P1;durP2;ratioP2;P2;SDS_P1;SDS_P2;PMS_P1;PMS_P2;Temp;Humidity;BMP_temperature;BMP_pressure;BME280_temperature;BME280_humidity;BME280_pressure;Samples;Min_cycle;Max_cycle;Signal;HPM_P1;HPM_P2
2021/12/13 00:00:18;;;;;;;2.40;2.27;;;8.30;99.90;;;;;;5049951;28;20464;-71
2021/12/13 00:02:51;;;;;;;2.50;1.87;;;8.30;99.90;;;;;;5049812;28;20532;-68
2021/12/13 00:05:23;;;;;;;2.90;2.70;;;8.40;99.90;;;;;;5047884;28;20489;-68
2021/12/13 00:07:55;;;;;;;2.53;1.90;;;8.40;99.90;;;;;;5053648;28;20464;-68
2021/12/13 00:10:29;;;;;;;2.47;2.27;;;8.40;99.90;;;;;;5050050;28;20474;-68
2021/12/13 00:13:00;;;;;;;2.90;2.60;;;8.40;99.90;;;;;;5055555;28;20544;-68
2021/12/13 00:15:32;;;;;;;2.37;2.03;;;8.40;99.90;;;;;;5063282;28;20645;-68
2021/12/13 00:18:00;;;;;;;5.13;2.03;;;8.40;99.90;;;;;;5058883;28;20874;-68
2021/12/13 00:20:36;;;;;;;3.60;3.30;;;8.40;99.90;;;;;;5049077;28;20462;-68
2021/12/13 00:23:14;;;;;;;2.80;1.97;;;8.40;99.90;;;;;;5051220;28;21074;-68
2021/12/13 00:25:46;;;;;;;2.73;2.53;;;8.50;99.90;;;;;;5054747;28;20490;-68
2021/12/13 00:28:17;;;;;;;2.07;1.87;;;8.50;99.90;;;;;;5050028;28;20848;-68
2021/12/13 00:30:54;;;;;;;3.20;2.70;;;8.50;99.90;;;;;;5049942;28;20540;-68
2021/12/13 00:33:33;;;;;;;2.58;2.38;;;8.40;99.90;;;;;;5047246;28;20926;-68
2021/12/13 00:36:06;;;;;;;1.70;1.57;;;8.40;99.90;;;;;;5048889;28;20254;-68
2021/12/13 00:38:39;;;;;;;2.60;2.20;;;8.40;99.90;;;;;;5061400;28;20473;-68
2021/12/13 00:41:11;;;;;;;4.93;3.13;;;8.40;99.90;;;;;;5066954;28;20458;-68
2021/12/13 00:43:43;;;;;;;2.40;2.20;;;8.40;99.90;;;;;;5054586;28;20563;-69
2021/12/13 00:46:13;;;;;;;3.67;2.13;;;8.40;99.90;;;;;;5056414;28;20474;-67
2021/12/13 00:48:44;;;;;;;1.77;1.30;;;8.40;99.90;;;;;;5052916;28;20474;-67
2021/12/13 00:51:15;;;;;;;3.07;2.10;;;8.40;99.90;;;;;;5047964;28;20489;-69
2021/12/13 00:53:46;;;;;;;2.30;2.17;;;8.40;99.90;;;;;;5050564;28;20578;-68
2021/12/13 00:56:51;;;;;;;2.03;1.93;;;8.40;99.90;;;;;;5054837;28;20532;-67
2021/12/13 00:59:23;;;;;;;3.03;1.60;;;8.40;99.90;;;;;;5058341;28;20458;-67
2021/12/13 01:01:59;;;;;;;1.90;1.53;;;8.40;99.90;;;;;;5048899;28;21004;-67
2021/12/13 01:05:01;;;;;;;2.10;1.90;;;8.40;99.90;;;;;;5044461;28;20513;-67
2021/12/13 01:08:08;;;;;;;2.50;2.30;;;8.40;99.90;;;;;;5045259;28;21032;-67
2021/12/13 01:11:20;;;;;;;1.57;1.47;;;8.30;99.90;;;;;;5048741;28;20469;-68
2021/12/13 01:14:01;;;;;;;3.55;2.00;;;8.30;99.90;;;;;;5047671;28;20504;-67
2021/12/13 01:16:49;;;;;;;2.23;2.03;;;8.20;99.90;;;;;;5053684;28;20219;-68
2021/12/13 01:22:30;;;;;;;2.40;1.57;;;8.20;99.90;;;;;;5059250;28;20469;-71
2021/12/13 01:28:02;;;;;;;1.50;1.40;;;8.20;99.90;;;;;;5034902;28;20522;-68
2021/12/13 01:30:34;;;;;;;1.90;1.80;;;8.20;99.90;;;;;;5051046;28;20528;-67
2021/12/13 01:33:03;;;;;;;6.50;1.60;;;8.20;99.90;;;;;;5051356;28;20708;-67
2021/12/13 01:35:34;;;;;;;2.10;1.73;;;8.10;99.90;;;;;;5045769;28;20485;-68
2021/12/13 01:38:07;;;;;;;2.20;1.93;;;8.20;99.90;;;;;;5048929;28;20462;-68
2021/12/13 01:40:38;;;;;;;4.23;2.57;;;8.10;99.90;;;;;;5043892;28;20469;-68
2021/12/13 01:43:08;;;;;;;1.93;1.70;;;8.10;99.90;;;;;;5061437;28;20527;-67
2021/12/13 01:45:37;;;;;;;2.33;2.13;;;8.10;99.90;;;;;;5055434;28;21031;-67
2021/12/13 01:48:05;;;;;;;2.80;2.53;;;8.10;99.90;;;;;;5059239;28;20469;-67
2021/12/13 01:50:43;;;;;;;2.00;1.80;;;8.10;99.90;;;;;;5044572;28;20862;-67
2021/12/13 01:53:10;;;;;;;2.17;1.90;;;8.10;99.90;;;;;;5062885;28;20489;-68
2021/12/13 01:55:43;;;;;;;1.60;1.50;;;8.10;99.90;;;;;;5067697;28;21032;-67
2021/12/13 01:58:34;;;;;;;3.57;2.70;;;8.00;99.90;;;;;;5061853;28;20466;-68
2021/12/13 02:01:12;;;;;;;3.83;1.87;;;8.00;99.90;;;;;;5054896;28;20473;-68
2021/12/13 02:03:50;;;;;;;3.67;2.13;;;8.00;99.90;;;;;;5063715;28;20452;-70
2021/12/13 02:06:24;;;;;;;1.70;1.40;;;8.00;99.90;;;;;;5056460;28;20558;-67
2021/12/13 02:08:56;;;;;;;3.63;2.03;;;8.00;99.90;;;;;;5056823;28;21303;-68
2021/12/13 02:11:29;;;;;;;1.83;1.73;;;8.00;99.90;;;;;;5049714;28;20940;-68
2021/12/13 02:14:08;;;;;;;2.90;1.92;;;8.00;99.90;;;;;;5048776;28;20906;-67
2021/12/13 02:16:58;;;;;;;2.03;1.50;;;8.00;99.90;;;;;;5048832;28;20819;-68
2021/12/13 02:19:46;;;;;;;1.63;1.53;;;7.90;99.90;;;;;;5056070;28;20223;-68
2021/12/13 02:22:36;;;;;;;2.17;1.50;;;7.90;99.90;;;;;;5062499;28;20541;-67
2021/12/13 02:25:11;;;;;;;1.55;1.45;;;7.90;99.90;;;;;;5046627;28;20479;-67
2021/12/13 02:27:40;;;;;;;3.00;1.63;;;7.90;99.90;;;;;;5062769;28;20229;-66
2021/12/13 02:30:13;;;;;;;2.13;1.23;;;7.90;99.90;;;;;;5059268;28;20449;-68
2021/12/13 02:32:42;;;;;;;2.50;1.80;;;7.90;99.90;;;;;;5063124;28;20450;-67
2021/12/13 02:35:11;;;;;;;1.50;1.20;;;7.90;99.90;;;;;;5065155;28;20450;-67
2021/12/13 02:37:41;;;;;;;2.10;2.00;;;8.00;99.90;;;;;;5062696;28;21007;-67
2021/12/13 02:40:10;;;;;;;1.63;1.43;;;8.00;99.90;;;;;;5048067;28;20470;-67
2021/12/13 02:42:37;;;;;;;1.20;0.85;;;8.00;99.90;;;;;;5054089;28;20607;-68
2021/12/13 02:45:13;;;;;;;1.08;0.98;;;8.10;99.90;;;;;;5049308;28;20228;-68
2021/12/13 02:47:50;;;;;;;1.25;0.90;;;8.00;99.90;;;;;;5056892;28;20213;-67
2021/12/13 02:50:37;;;;;;;1.63;1.10;;;8.10;99.90;;;;;;5044735;28;20860;-68
2021/12/13 02:53:06;;;;;;;1.67;1.07;;;8.10;99.90;;;;;;5053667;28;20820;-67
2021/12/13 02:55:34;;;;;;;2.30;2.00;;;8.10;99.90;;;;;;5052144;28;20564;-66
2021/12/13 02:58:04;;;;;;;1.47;1.37;;;8.10;99.90;;;;;;5050911;28;20777;-68
2021/12/13 03:00:36;;;;;;;1.77;1.57;;;8.10;99.90;;;;;;5049952;28;20579;-67
2021/12/13 03:03:08;;;;;;;1.27;1.17;;;8.10;99.90;;;;;;5050322;28;20940;-67
2021/12/13 03:05:39;;;;;;;2.10;1.70;;;8.10;99.90;;;;;;5057322;28;21090;-67
2021/12/13 03:08:10;;;;;;;1.00;1.00;;;8.10;99.90;;;;;;5048132;28;20982;-65
2021/12/13 03:10:43;;;;;;;1.00;1.00;;;8.10;99.90;;;;;;5044352;28;20789;-68
2021/12/13 03:13:10;;;;;;;1.13;0.93;;;8.20;99.90;;;;;;5049409;28;20486;-68
2021/12/13 03:15:37;;;;;;;1.47;1.37;;;8.20;99.90;;;;;;5055090;28;20558;-67
2021/12/13 03:18:12;;;;;;;0.80;0.80;;;8.20;99.90;;;;;;5059853;28;20495;-67
2021/12/13 03:21:02;;;;;;;1.20;1.10;;;8.20;99.90;;;;;;5060071;28;20560;-68
2021/12/13 03:23:49;;;;;;;1.20;1.10;;;8.20;99.90;;;;;;5056071;28;20457;-66
2021/12/13 03:26:53;;;;;;;1.23;1.00;;;8.20;99.90;;;;;;5060329;28;20491;-67
2021/12/13 03:29:26;;;;;;;1.08;1.00;;;8.20;99.90;;;;;;5060044;28;20887;-66
2021/12/13 03:31:57;;;;;;;1.40;1.30;;;8.20;99.90;;;;;;5063034;28;20211;-68
2021/12/13 03:34:30;;;;;;;2.30;1.30;;;8.20;99.90;;;;;;5061110;28;20481;-65
2021/12/13 03:37:00;;;;;;;0.83;0.83;;;8.20;99.90;;;;;;5065269;28;20486;-66
2021/12/13 03:39:31;;;;;;;1.30;1.00;;;8.20;99.90;;;;;;5051513;28;20438;-65
2021/12/13 03:42:01;;;;;;;0.97;0.97;;;8.20;99.90;;;;;;5053074;28;20548;-66
2021/12/13 03:44:39;;;;;;;0.53;0.53;;;8.20;99.90;;;;;;5059530;28;20436;-67
2021/12/13 03:47:11;;;;;;;3.40;1.00;;;8.20;99.90;;;;;;5047272;28;21446;-68
2021/12/13 03:49:42;;;;;;;0.80;0.80;;;8.20;99.90;;;;;;5047943;28;20470;-66
2021/12/13 03:52:13;;;;;;;0.60;0.60;;;8.20;99.90;;;;;;5049760;28;20543;-67
2021/12/13 03:54:42;;;;;;;0.80;0.80;;;8.20;99.90;;;;;;5059705;28;21544;-66
2021/12/13 03:57:11;;;;;;;1.35;1.25;;;8.20;99.90;;;;;;5057262;28;20481;-68
2021/12/13 03:59:41;;;;;;;1.80;1.33;;;8.20;99.90;;;;;;5045045;28;20272;-67
2021/12/13 04:02:11;;;;;;;1.27;1.00;;;8.20;99.90;;;;;;5048568;28;20531;-67
2021/12/13 04:04:42;;;;;;;1.10;0.97;;;8.20;99.90;;;;;;5043405;28;20473;-67
2021/12/13 04:07:13;;;;;;;0.90;0.90;;;8.30;99.90;;;;;;5048864;28;20537;-67
2021/12/13 04:09:44;;;;;;;1.23;0.90;;;8.20;99.90;;;;;;5045092;28;20495;-67
2021/12/13 04:12:14;;;;;;;1.30;0.77;;;8.30;99.90;;;;;;5047412;28;21004;-67
2021/12/13 04:14:47;;;;;;;0.80;0.70;;;8.30;99.90;;;;;;5044583;28;20394;-67
2021/12/13 04:17:35;;;;;;;1.13;0.80;;;8.30;99.90;;;;;;5043655;28;20552;-67
2021/12/13 04:20:07;;;;;;;1.37;0.80;;;8.40;99.90;;;;;;5049475;28;20464;-67
2021/12/13 04:22:37;;;;;;;1.23;1.00;;;8.40;99.90;;;;;;5045954;28;21178;-67
2021/12/13 04:25:10;;;;;;;1.27;1.20;;;8.40;99.90;;;;;;5050637;28;21514;-68
2021/12/13 04:27:40;;;;;;;1.17;1.07;;;8.50;99.90;;;;;;5048230;28;20604;-67
2021/12/13 04:30:15;;;;;;;1.23;1.13;;;8.40;99.90;;;;;;5046827;28;20503;-68
2021/12/13 04:32:47;;;;;;;1.10;1.00;;;8.40;99.90;;;;;;5051155;28;20472;-67
2021/12/13 04:35:15;;;;;;;1.70;0.70;;;8.40;99.90;;;;;;5066388;28;20489;-67
2021/12/13 04:37:46;;;;;;;2.20;0.90;;;8.50;99.90;;;;;;5061052;28;20433;-67
2021/12/13 04:40:18;;;;;;;1.07;1.03;;;8.50;99.90;;;;;;5049464;28;20454;-67
2021/12/13 04:42:49;;;;;;;1.67;0.80;;;8.50;99.90;;;;;;5045085;28;20481;-68
2021/12/13 04:45:18;;;;;;;1.30;1.20;;;8.50;99.90;;;;;;5058426;28;20451;-67
2021/12/13 04:47:53;;;;;;;4.40;1.00;;;8.50;99.90;;;;;;5051299;28;20459;-68
2021/12/13 04:50:23;;;;;;;1.10;1.00;;;8.50;99.90;;;;;;5047613;28;20518;-68
2021/12/13 04:52:50;;;;;;;0.73;0.73;;;8.50;99.90;;;;;;5044293;28;20474;-67
2021/12/13 04:55:22;;;;;;;1.03;0.77;;;8.50;99.90;;;;;;5051458;28;20490;-68
2021/12/13 04:57:50;;;;;;;0.80;0.60;;;8.50;99.90;;;;;;5052484;28;20535;-68
2021/12/13 05:00:20;;;;;;;1.27;0.90;;;8.50;99.90;;;;;;5046643;28;20523;-68
2021/12/13 05:02:50;;;;;;;1.80;1.03;;;8.50;99.90;;;;;;5046120;28;20465;-70
2021/12/13 05:05:18;;;;;;;1.77;1.07;;;8.60;99.90;;;;;;5047911;28;20561;-67
2021/12/13 05:07:47;;;;;;;1.10;0.77;;;8.50;99.90;;;;;;5048671;28;20457;-68
2021/12/13 05:10:15;;;;;;;2.13;1.93;;;8.50;99.90;;;;;;5043680;28;20480;-68
2021/12/13 05:12:59;;;;;;;1.27;1.17;;;8.60;99.90;;;;;;5059814;28;20601;-68
2021/12/13 05:15:28;;;;;;;2.90;1.43;;;8.60;99.90;;;;;;5057647;28;20493;-67
2021/12/13 05:17:55;;;;;;;1.90;1.33;;;8.60;99.90;;;;;;5062056;28;21029;-67
2021/12/13 05:20:25;;;;;;;2.20;1.77;;;8.50;99.90;;;;;;5052527;28;20436;-67
2021/12/13 05:22:54;;;;;;;2.13;1.93;;;8.50;99.90;;;;;;5056666;28;20875;-68
2021/12/13 05:25:27;;;;;;;1.33;1.23;;;8.50;99.90;;;;;;5047964;28;20475;-67
2021/12/13 05:28:01;;;;;;;2.13;1.60;;;8.50;99.90;;;;;;5051847;28;20470;-67
2021/12/13 05:30:28;;;;;;;1.67;1.33;;;8.40;99.90;;;;;;5057045;28;20826;-67
2021/12/13 05:32:59;;;;;;;2.50;2.30;;;8.40;99.90;;;;;;5053640;28;20610;-72
2021/12/13 05:35:30;;;;;;;1.97;1.30;;;8.40;99.90;;;;;;5050030;28;20581;-67
2021/12/13 05:38:01;;;;;;;3.33;1.30;;;8.40;99.90;;;;;;5053310;28;21521;-67
2021/12/13 05:40:35;;;;;;;1.80;1.70;;;8.40;99.90;;;;;;5051250;28;20947;-67
2021/12/13 05:43:15;;;;;;;1.93;1.73;;;8.40;99.90;;;;;;5055282;28;20463;-67
2021/12/13 05:45:50;;;;;;;1.60;1.50;;;8.40;99.90;;;;;;5055292;28;20506;-66
2021/12/13 05:48:18;;;;;;;1.27;1.10;;;8.40;99.90;;;;;;5066439;28;20522;-66
2021/12/13 05:50:50;;;;;;;1.00;0.97;;;8.40;99.90;;;;;;5059046;28;20717;-68
2021/12/13 05:53:22;;;;;;;4.00;1.40;;;8.40;99.90;;;;;;5055046;28;20482;-67
2021/12/13 05:55:57;;;;;;;1.57;1.47;;;8.40;99.90;;;;;;5048573;28;20488;-66
2021/12/13 05:58:36;;;;;;;1.23;1.13;;;8.40;99.90;;;;;;5047810;28;20462;-68
2021/12/13 06:01:11;;;;;;;2.83;1.40;;;8.40;99.90;;;;;;5054146;28;20502;-68
2021/12/13 06:03:42;;;;;;;1.20;1.10;;;8.40;99.90;;;;;;5069940;28;20449;-67
2021/12/13 06:06:12;;;;;;;1.20;0.90;;;8.40;99.90;;;;;;5106693;22;20618;-66
2021/12/13 06:08:42;;;;;;;2.43;2.23;;;8.40;99.90;;;;;;5060022;28;20467;-65
2021/12/13 06:11:13;;;;;;;1.57;1.47;;;8.50;99.90;;;;;;5073599;28;20477;-68
2021/12/13 06:14:18;;;;;;;1.97;1.77;;;8.40;99.90;;;;;;5071141;28;20421;-64
2021/12/13 06:16:55;;;;;;;8.70;1.40;;;8.50;99.90;;;;;;5001558;28;20578;-69
2021/12/13 06:19:30;;;;;;;1.30;1.20;;;8.40;99.90;;;;;;4993800;28;20466;-68
2021/12/13 06:22:06;;;;;;;2.37;2.10;;;8.40;99.90;;;;;;5030530;28;20451;-68
2021/12/13 06:24:35;;;;;;;2.30;1.43;;;8.40;99.90;;;;;;5061078;28;20455;-67
2021/12/13 06:27:05;;;;;;;1.70;1.40;;;8.40;99.90;;;;;;5067911;28;20479;-68
2021/12/13 06:29:59;;;;;;;8.40;2.73;;;8.40;99.90;;;;;;5071180;28;20455;-68
2021/12/13 06:32:31;;;;;;;6.40;2.63;;;8.40;99.90;;;;;;5072665;28;20493;-68
2021/12/13 06:35:00;;;;;;;4.03;2.73;;;8.40;99.90;;;;;;5068757;28;20483;-68
2021/12/13 06:37:33;;;;;;;3.00;1.57;;;8.40;99.90;;;;;;5065423;28;20479;-67
2021/12/13 06:40:13;;;;;;;4.47;2.60;;;8.40;99.90;;;;;;5061113;28;20459;-68
2021/12/13 06:42:39;;;;;;;4.10;2.00;;;8.40;99.90;;;;;;5072016;28;20512;-68
2021/12/13 06:45:24;;;;;;;3.33;2.30;;;8.40;99.90;;;;;;5067965;28;20466;-68
2021/12/13 06:47:54;;;;;;;1.60;1.40;;;8.40;99.90;;;;;;5072061;28;20474;-68
2021/12/13 06:50:24;;;;;;;3.80;1.20;;;8.30;99.90;;;;;;5067616;28;21093;-68
2021/12/13 06:52:51;;;;;;;1.80;1.70;;;8.30;99.90;;;;;;5073101;28;20473;-68
2021/12/13 06:55:20;;;;;;;2.03;1.90;;;8.30;99.90;;;;;;5068658;28;21342;-70
2021/12/13 06:57:54;;;;;;;2.13;1.88;;;8.30;99.90;;;;;;5062432;28;20450;-68
2021/12/13 07:00:29;;;;;;;1.97;1.73;;;8.30;99.90;;;;;;5058286;28;20194;-68
2021/12/13 07:02:59;;;;;;;2.83;2.13;;;8.30;99.90;;;;;;5063613;28;20429;-68
2021/12/13 07:05:29;;;;;;;2.97;2.73;;;8.30;99.90;;;;;;5065203;28;20474;-68
2021/12/13 07:07:59;;;;;;;2.77;2.53;;;8.30;99.90;;;;;;5065079;28;20552;-68
2021/12/13 07:10:32;;;;;;;5.23;2.80;;;8.30;99.90;;;;;;5065091;28;21217;-69
2021/12/13 07:13:03;;;;;;;2.53;2.43;;;8.30;99.90;;;;;;5060183;28;20884;-70
2021/12/13 07:15:41;;;;;;;2.13;1.97;;;8.30;99.90;;;;;;5062393;28;20481;-68
2021/12/13 07:18:15;;;;;;;3.00;2.00;;;8.30;99.90;;;;;;5055199;28;20483;-69
2021/12/13 07:20:47;;;;;;;2.90;2.30;;;8.30;99.90;;;;;;5059734;28;20463;-69
2021/12/13 07:23:14;;;;;;;2.20;1.90;;;8.30;99.90;;;;;;5056179;28;20457;-70
2021/12/13 07:25:45;;;;;;;5.00;2.07;;;8.30;99.90;;;;;;5059723;28;20457;-70
2021/12/13 07:28:26;;;;;;;2.20;1.93;;;8.30;99.90;;;;;;5069163;28;21032;-70
2021/12/13 07:30:55;;;;;;;2.80;2.10;;;8.30;99.90;;;;;;5070687;28;20448;-69
2021/12/13 07:33:34;;;;;;;2.00;1.63;;;8.30;99.90;;;;;;5068147;28;20454;-70
2021/12/13 07:36:15;;;;;;;2.10;2.00;;;8.30;99.90;;;;;;5068022;28;20536;-69
2021/12/13 07:38:48;;;;;;;2.63;2.27;;;8.40;99.90;;;;;;5061541;28;20465;-68
2021/12/13 07:41:16;;;;;;;2.17;1.63;;;8.30;99.90;;;;;;5064433;28;20851;-68
2021/12/13 07:43:44;;;;;;;2.03;1.40;;;8.30;99.90;;;;;;5067874;28;20961;-68
2021/12/13 07:46:25;;;;;;;2.23;2.03;;;8.30;99.90;;;;;;5070739;28;20864;-68
2021/12/13 07:48:55;;;;;;;2.50;2.30;;;8.30;99.90;;;;;;5059580;28;20466;-68
2021/12/13 07:51:26;;;;;;;1.90;1.50;;;8.30;99.90;;;;;;5061878;28;20458;-68
2021/12/13 07:54:01;;;;;;;1.60;1.10;;;8.40;99.90;;;;;;5070449;28;20458;-68
2021/12/13 07:56:41;;;;;;;1.20;1.10;;;8.40;99.90;;;;;;5067914;28;20232;-68
2021/12/13 07:59:11;;;;;;;2.20;2.00;;;8.40;99.90;;;;;;5069414;28;20433;-67
2021/12/13 08:01:46;;;;;;;2.27;2.07;;;8.40;99.90;;;;;;5064767;28;20488;-69
2021/12/13 08:04:17;;;;;;;1.60;1.47;;;8.40;99.90;;;;;;5070550;28;20498;-67
2021/12/13 08:06:46;;;;;;;1.67;1.57;;;8.50;99.90;;;;;;5070564;28;20516;-67
2021/12/13 08:09:17;;;;;;;2.03;1.80;;;8.50;99.90;;;;;;5063602;28;20503;-67
2021/12/13 08:11:47;;;;;;;1.70;1.47;;;8.50;99.90;;;;;;5059936;28;20467;-69
2021/12/13 08:14:15;;;;;;;1.53;1.40;;;8.50;99.90;;;;;;5065029;28;20971;-69
2021/12/13 08:16:46;;;;;;;1.90;1.80;;;8.60;99.90;;;;;;5069517;28;20549;-68
2021/12/13 08:19:18;;;;;;;2.80;2.30;;;8.60;99.90;;;;;;5063117;28;20430;-68
2021/12/13 08:21:49;;;;;;;3.00;2.70;;;8.60;99.90;;;;;;5061918;28;20441;-68
2021/12/13 08:24:29;;;;;;;2.70;2.50;;;8.70;99.90;;;;;;5053534;28;20541;-68
2021/12/13 08:27:06;;;;;;;1.53;1.37;;;8.70;99.90;;;;;;5063700;28;20454;-69
2021/12/13 08:29:36;;;;;;;2.27;1.80;;;8.80;99.90;;;;;;5069516;28;20448;-68
2021/12/13 08:32:08;;;;;;;1.73;1.63;;;8.80;99.90;;;;;;5069412;28;20465;-69
2021/12/13 08:34:38;;;;;;;3.50;2.00;;;8.90;99.90;;;;;;5071362;28;20425;-68
2021/12/13 08:37:13;;;;;;;1.73;1.63;;;8.90;99.90;;;;;;5070712;28;20450;-69
2021/12/13 08:39:40;;;;;;;3.43;1.57;;;9.00;99.90;;;;;;5070113;28;20451;-71
2021/12/13 08:42:11;;;;;;;1.60;1.40;;;9.00;99.90;;;;;;5067687;28;20520;-69
2021/12/13 08:44:41;;;;;;;1.83;1.73;;;9.10;99.90;;;;;;5066495;28;20540;-70
2021/12/13 08:47:12;;;;;;;1.77;1.40;;;9.10;99.90;;;;;;5065002;28;20509;-70
2021/12/13 08:49:44;;;;;;;3.40;3.10;;;9.20;99.90;;;;;;5059223;28;20488;-69
2021/12/13 08:52:20;;;;;;;3.40;2.30;;;9.20;99.90;;;;;;5059237;28;20455;-69
2021/12/13 08:54:52;;;;;;;3.47;2.17;;;9.30;99.90;;;;;;5069650;28;20441;-70
2021/12/13 08:57:49;;;;;;;2.83;2.10;;;9.30;99.90;;;;;;5065892;28;20586;-68
2021/12/13 09:00:40;;;;;;;1.80;1.70;;;9.40;99.90;;;;;;5022284;28;20438;-69
2021/12/13 09:03:22;;;;;;;2.10;1.90;;;9.40;99.90;;;;;;5069327;28;20434;-70
2021/12/13 09:05:57;;;;;;;2.50;2.23;;;9.40;99.90;;;;;;5070955;28;20451;-69
2021/12/13 09:08:32;;;;;;;3.47;2.20;;;9.50;99.90;;;;;;5081756;28;20514;-69
2021/12/13 09:11:05;;;;;;;2.33;2.10;;;9.50;99.90;;;;;;5085413;28;20456;-69
2021/12/13 09:13:39;;;;;;;3.30;2.90;;;9.50;99.90;;;;;;5076154;28;20515;-69
2021/12/13 09:16:06;;;;;;;1.80;1.70;;;9.60;99.90;;;;;;5062750;28;20502;-70
2021/12/13 09:18:34;;;;;;;3.47;2.77;;;9.70;99.90;;;;;;5057296;28;20921;-69
2021/12/13 09:21:04;;;;;;;2.80;2.40;;;9.80;99.90;;;;;;5075279;28;20475;-69
2021/12/13 09:23:38;;;;;;;1.73;1.50;;;9.80;99.90;;;;;;5082254;28;20426;-69
2021/12/13 09:26:08;;;;;;;2.00;1.87;;;9.90;99.90;;;;;;5081979;28;20413;-68
2021/12/13 09:28:42;;;;;;;4.63;2.83;;;9.90;99.90;;;;;;5078812;28;20448;-69
2021/12/13 09:31:13;;;;;;;1.90;1.80;;;10.00;99.90;;;;;;5069504;28;20485;-69
2021/12/13 09:33:44;;;;;;;3.60;2.47;;;10.10;99.90;;;;;;5067026;28;20472;-69
2021/12/13 09:36:13;;;;;;;1.83;1.57;;;10.10;99.90;;;;;;5072716;28;20483;-69
2021/12/13 09:38:48;;;;;;;2.83;2.13;;;10.10;99.90;;;;;;5063535;28;21213;-68
2021/12/13 09:41:21;;;;;;;1.40;1.30;;;10.10;99.90;;;;;;5074289;28;20433;-68
2021/12/13 09:43:52;;;;;;;3.23;1.73;;;10.20;99.90;;;;;;5074416;28;20554;-69
2021/12/13 09:46:33;;;;;;;2.00;1.00;;;10.20;99.90;;;;;;5074388;28;20487;-69
2021/12/13 09:49:07;;;;;;;1.90;1.80;;;10.30;99.90;;;;;;5063498;28;20575;-68
2021/12/13 09:51:39;;;;;;;8.33;1.23;;;10.30;99.90;;;;;;5063156;28;20492;-68
2021/12/13 09:54:10;;;;;;;1.53;1.43;;;10.40;99.90;;;;;;5063501;28;20886;-68
2021/12/13 09:56:43;;;;;;;2.47;1.70;;;10.50;99.90;;;;;;5059537;28;20463;-70
2021/12/13 09:59:16;;;;;;;2.57;1.50;;;10.60;99.90;;;;;;5058299;28;20431;-71
2021/12/13 10:01:43;;;;;;;0.90;0.60;;;10.60;99.90;;;;;;5067033;28;20464;-70
2021/12/13 10:04:15;;;;;;;0.80;0.70;;;10.70;99.90;;;;;;5058092;28;20456;-68
2021/12/13 10:06:47;;;;;;;1.10;0.70;;;10.80;99.90;;;;;;5059384;28;20979;-69
2021/12/13 10:09:17;;;;;;;0.80;0.80;;;10.90;99.90;;;;;;5073311;28;21257;-70
2021/12/13 10:11:47;;;;;;;0.93;0.93;;;11.00;99.90;;;;;;5072755;28;20426;-68
2021/12/13 10:14:18;;;;;;;1.03;0.93;;;11.10;99.90;;;;;;5068186;28;20528;-69
2021/12/13 10:16:47;;;;;;;1.97;1.40;;;11.10;99.90;;;;;;5062297;28;20483;-68
2021/12/13 10:19:24;;;;;;;2.40;0.90;;;11.10;99.90;;;;;;5057210;28;20438;-68
2021/12/13 10:21:51;;;;;;;2.40;1.23;;;11.10;99.90;;;;;;5070073;28;20435;-68
2021/12/13 10:24:22;;;;;;;0.60;0.60;;;11.10;99.90;;;;;;5072971;28;20452;-68
2021/12/13 10:26:52;;;;;;;0.60;0.50;;;11.10;99.90;;;;;;5072336;28;20469;-69
2021/12/13 10:29:20;;;;;;;0.80;0.77;;;11.10;99.90;;;;;;5068401;28;20521;-69
2021/12/13 10:31:51;;;;;;;2.50;0.80;;;11.00;99.90;;;;;;5069364;28;20567;-69
2021/12/13 10:34:23;;;;;;;1.27;0.63;;;11.00;99.90;;;;;;5066873;28;20426;-69
2021/12/13 10:36:54;;;;;;;1.00;0.73;;;11.00;99.90;;;;;;5071381;28;20494;-69
2021/12/13 10:39:25;;;;;;;1.00;0.90;;;10.90;99.90;;;;;;5071596;28;20430;-70
2021/12/13 10:41:59;;;;;;;1.07;0.83;;;11.00;99.90;;;;;;5073371;28;20448;-69
2021/12/13 10:44:29;;;;;;;0.60;0.50;;;10.90;99.90;;;;;;5089618;28;20452;-69
2021/12/13 10:47:00;;;;;;;0.87;0.87;;;10.80;99.90;;;;;;5090781;28;20445;-70
2021/12/13 10:49:30;;;;;;;0.97;0.80;;;10.80;99.90;;;;;;5062243;28;20467;-70
2021/12/13 10:52:01;;;;;;;0.70;0.70;;;10.70;99.90;;;;;;5058056;28;20430;-70
2021/12/13 10:54:31;;;;;;;0.77;0.77;;;10.70;99.90;;;;;;5061482;28;20471;-70
2021/12/13 10:57:01;;;;;;;1.00;0.70;;;10.70;99.90;;;;;;5062720;28;20494;-70
2021/12/13 10:59:30;;;;;;;0.90;0.90;;;10.80;99.90;;;;;;5062627;28;20445;-70
2021/12/13 11:02:02;;;;;;;1.67;1.57;;;10.80;99.90;;;;;;5069291;28;20516;-70
2021/12/13 11:04:34;;;;;;;0.97;0.90;;;10.90;99.90;;;;;;5072353;28;20460;-70
2021/12/13 11:07:01;;;;;;;1.23;1.13;;;10.80;99.90;;;;;;5071090;28;20550;-70
2021/12/13 11:09:28;;;;;;;1.13;1.03;;;10.90;99.90;;;;;;5072315;28;20834;-70
2021/12/13 11:12:03;;;;;;;0.70;0.70;;;11.00;99.90;;;;;;5071248;28;20529;-70
2021/12/13 11:14:30;;;;;;;1.00;0.90;;;11.10;99.90;;;;;;5068164;28;21184;-70
2021/12/13 11:17:00;;;;;;;0.90;0.70;;;11.10;99.90;;;;;;5058036;28;20565;-70
2021/12/13 11:19:32;;;;;;;1.23;0.77;;;11.10;99.90;;;;;;5067235;28;20518;-70
2021/12/13 11:22:02;;;;;;;1.10;0.83;;;11.20;99.90;;;;;;5069759;28;20463;-70
2021/12/13 11:24:31;;;;;;;0.73;0.63;;;11.20;99.90;;;;;;5070410;28;20479;-70
2021/12/13 11:27:01;;;;;;;1.17;0.70;;;11.30;99.90;;;;;;5070176;28;20446;-70
2021/12/13 11:29:28;;;;;;;1.13;0.60;;;11.40;99.90;;;;;;5067649;28;20441;-70
2021/12/13 11:32:43;;;;;;;1.50;0.93;;;11.30;99.90;;;;;;5071295;28;20461;-70
2021/12/13 11:35:57;;;;;;;0.60;0.50;;;11.30;99.90;;;;;;5070939;28;20977;-70
2021/12/13 11:38:53;;;;;;;1.63;0.67;;;11.20;99.90;;;;;;5069584;28;20427;-70
2021/12/13 11:42:07;;;;;;;0.80;0.77;;;11.20;99.90;;;;;;5072128;28;20458;-71
2021/12/13 11:45:03;;;;;;;0.80;0.80;;;11.20;99.90;;;;;;5070786;28;20437;-69
2021/12/13 11:48:02;;;;;;;1.00;0.90;;;11.10;99.90;;;;;;5058978;28;21173;-69
2021/12/13 11:50:59;;;;;;;1.33;0.97;;;11.10;99.90;;;;;;5069193;28;20537;-70
2021/12/13 11:53:50;;;;;;;1.40;1.07;;;11.20;99.90;;;;;;5068715;28;20551;-69
2021/12/13 11:56:38;;;;;;;1.00;0.90;;;11.30;99.90;;;;;;5070345;28;20503;-69
2021/12/13 11:59:20;;;;;;;4.10;1.47;;;11.40;99.90;;;;;;5063875;28;20467;-69
2021/12/13 12:02:06;;;;;;;1.50;0.80;;;11.40;99.90;;;;;;5057955;28;20993;-70
2021/12/13 12:05:17;;;;;;;1.07;0.83;;;11.40;99.90;;;;;;5070842;28;20432;-70
2021/12/13 12:08:19;;;;;;;1.13;0.90;;;11.40;99.90;;;;;;5100914;22;20583;-68
2021/12/13 12:11:14;;;;;;;1.20;1.10;;;11.50;99.90;;;;;;5075964;28;21851;-69
2021/12/13 12:13:50;;;;;;;1.27;1.13;;;11.60;99.90;;;;;;5094056;28;20437;-69
2021/12/13 12:16:21;;;;;;;1.27;1.17;;;11.60;99.90;;;;;;5100117;28;20456;-69
2021/12/13 12:18:50;;;;;;;0.87;0.80;;;11.60;99.90;;;;;;5083835;28;21101;-70
2021/12/13 12:21:47;;;;;;;0.97;0.87;;;11.60;99.90;;;;;;5083621;28;20486;-69
2021/12/13 12:24:18;;;;;;;0.90;0.80;;;11.60;99.90;;;;;;5069344;28;20468;-69
2021/12/13 12:26:49;;;;;;;1.57;1.17;;;11.50;99.90;;;;;;5074703;28;20979;-70
2021/12/13 12:29:20;;;;;;;1.10;1.00;;;11.50;99.90;;;;;;5081216;28;20887;-69
2021/12/13 12:31:51;;;;;;;8.43;1.23;;;11.50;99.90;;;;;;5084565;28;20458;-69
2021/12/13 12:34:18;;;;;;;2.20;0.70;;;11.50;99.90;;;;;;5084618;28;20528;-70
2021/12/13 12:37:15;;;;;;;1.57;0.93;;;11.50;99.90;;;;;;5078618;28;20539;-69
2021/12/13 12:40:13;;;;;;;2.00;0.60;;;11.50;99.90;;;;;;5074867;28;20438;-70
2021/12/13 12:42:44;;;;;;;2.23;0.57;;;11.50;99.90;;;;;;5081075;28;20528;-69
2021/12/13 12:45:16;;;;;;;0.60;0.60;;;11.40;99.90;;;;;;5081537;28;20452;-69
2021/12/13 12:48:20;;;;;;;1.37;0.80;;;11.20;99.90;;;;;;5076210;28;20458;-68
2021/12/13 12:51:04;;;;;;;1.27;0.80;;;11.20;99.90;;;;;;5068653;28;20505;-67
2021/12/13 12:53:44;;;;;;;2.87;0.50;;;11.00;99.90;;;;;;5071821;28;20449;-71
2021/12/13 12:56:18;;;;;;;2.40;0.70;;;10.90;99.90;;;;;;5069995;28;20485;-69
2021/12/13 12:58:53;;;;;;;0.90;0.60;;;10.80;99.90;;;;;;5074241;28;20949;-68
2021/12/13 13:01:23;;;;;;;0.80;0.40;;;10.80;99.90;;;;;;5071101;28;20473;-69
2021/12/13 13:03:51;;;;;;;0.60;0.60;;;10.70;99.90;;;;;;5067033;28;20514;-69
2021/12/13 13:06:22;;;;;;;0.60;0.47;;;10.70;99.90;;;;;;5067265;28;20537;-69
2021/12/13 13:08:51;;;;;;;0.60;0.43;;;10.70;99.90;;;;;;5076557;28;20935;-69
2021/12/13 13:11:27;;;;;;;0.70;0.60;;;10.60;99.90;;;;;;5084080;28;20498;-69
2021/12/13 13:13:57;;;;;;;0.77;0.50;;;10.60;99.90;;;;;;5084118;28;20439;-70
2021/12/13 13:16:29;;;;;;;0.60;0.53;;;10.60;99.90;;;;;;5082104;28;20574;-69
2021/12/13 13:18:56;;;;;;;1.00;0.60;;;10.50;99.90;;;;;;5083327;28;20968;-69
2021/12/13 13:21:23;;;;;;;1.27;0.67;;;10.50;99.90;;;;;;5084030;28;20556;-69
2021/12/13 13:23:53;;;;;;;1.60;0.67;;;10.50;99.90;;;;;;5084936;28;20433;-69
2021/12/13 13:26:23;;;;;;;1.10;0.60;;;10.50;99.90;;;;;;5086039;28;20490;-70
2021/12/13 13:28:53;;;;;;;1.27;0.50;;;10.50;99.90;;;;;;5077527;28;20840;-68
2021/12/13 13:31:23;;;;;;;1.00;0.70;;;10.50;99.90;;;;;;5081636;28;20560;-70
2021/12/13 13:33:53;;;;;;;0.80;0.80;;;10.50;99.90;;;;;;5085558;28;20897;-70
2021/12/13 13:36:28;;;;;;;0.73;0.70;;;10.50;99.90;;;;;;5083520;28;20462;-70